BGSFCYDF [SWR571]

Guest
Details From BGSF - Kangerlussuaq
To CYDF - Deer Lake
Flight Number SWR571
Tags Real Commercial Decoded
Created
Modified
Stats Distance 1,093 nm / 2,025 km
Max Altitude 0 ft / 0 m
Waypoints 4
Social Downloads 9
Likes 0
Share VATSIM

Download

Looking for another format? Having issues loading an existing format? Contact us
Advertisement - Login to hide

Notes

Decoded

Route

BGSF SUKAK OMVIX CYDF

ID Type Via Altitude Latitude Longitude Leg Dist Tot Dist Heading (true) Name
O BGSF APT - 0 ft / 0 m 67.00561˚ -50.74307˚ - 0 nm - -
SUKAK FIX - 0 ft / 0 m 66.94250˚ -50.48917˚ 7 nm 7 nm 122° / 123° -
OMVIX FIX - 0 ft / 0 m 49.38033˚ -57.30400˚ 1075 nm 1082 nm 195° / 189° -
O CYDF APT - 0 ft / 0 m 49.20533˚ -57.40033˚ 11 nm 1093 nm 200° / 200° -

Altitude Profile

Advertisement - Login to hide

Weather


0- 5 10 15 20 25 30 35+ Temperature / ° C

Clouds and Precipitation
Forecast for 2018-05-28 00:00 UTC. Updated 3 hours ago

Ground ~20,000 ft ~40,000 ft Winds

BGSF

Details ICAO BGSF (SFJ)
Name Kangerlussuaq
Region Greenland
Timezone America/Godthab (UTC-2.0)
Stats Elevation 165 ft / 50 m (AMSL)
Location 67.011605° -50.714721°
Runways 2
Magnetic Variation 28.853° W

METAR

BGSF 280050Z AUTO 25004KT 230V290 9999NDV -SHRA FEW016/// SCT038/// OVC047/// 01/M00 Q1014

Decode

TAF

TAF AMD BGSF 272221Z 2722/2824 25006KT 9999 SCT040 TEMPO 2722/2808 4000 -SHSN BKN012 BECMG 2807/2810 08010KT

Decode

Departure Runways

ID Width Length Bearing (true) Bearing (mag) Surface Threshold Offset Overrun Length
09 197 ft / 60 m 9,169 ft / 2,795 m 61.57° 90.42° Asphalt 0 ft / 0 m 509 ft / 155 m
10 197 ft / 60 m 9,187 ft / 2,800 m 61.55° 90.40° Asphalt 0 ft / 0 m 0 ft / 0 m
27 197 ft / 60 m 9,169 ft / 2,795 m 241.63° 270.48° Asphalt 0 ft / 0 m 171 ft / 52 m
28 197 ft / 60 m 9,187 ft / 2,800 m 241.60° 270.45° Asphalt 0 ft / 0 m 0 ft / 0 m

CYDF

Details ICAO CYDF (YDF)
Name DEER LAKE
Region Canada
Timezone America/St_Johns (UTC-2.5)
Stats Elevation 72 ft / 22 m (AMSL)
Location 49.211000° -57.391246°
Runways 1
Magnetic Variation 19.051° W

METAR

CYDF 280100Z 17004KT 170V250 15SM FEW250 03/M02 A3027 RMK CI1 SLP252

Decode

TAF

TAF CYDF 280142Z 2802/2814 VRB03KT P6SM SKC PROB30 2806/2809 1SM BR BKN003 FM280900 22008KT P6SM SKC RMK NXT FCST BY 280800Z

Decode

Destination Runways

ID Width Length Bearing (true) Bearing (mag) Surface Threshold Offset Overrun Length
07 151 ft / 46 m 5,989 ft / 1,825 m 46.32° 65.37° Asphalt 0 ft / 0 m 0 ft / 0 m
25 151 ft / 46 m 5,989 ft / 1,825 m 226.34° 245.39° Asphalt 0 ft / 0 m 0 ft / 0 m

Approach Navaids

Runway Type Ident Frequency Range Bearing (true) Bearing (mag) Slope Elevation
25 Localiser IDF 110.30 MHz 18 nm / 33 km 226.30° 245.35° - 72 ft / 22 m (AMSL)
25 Glidescope IDF 110.30 MHz 10 nm / 19 km 249.00° 268.05° 2.70° 72 ft / 22 m (AMSL)

Popular Alternatives